Warnerville, New York
Current Conditions -  °F | °C
As of 10:35 AM on Thursday 30 Oct 2014 (Local Time) from KNY0 Reporting Station
Overcast Overcast  
Wind Chill: 39°   Ceiling: 2300
Heat Index: 44°   Visibility: 10mi
Dew Point: 36°   Wind: 8mph
Humidity: 73%   Direction: 310°NW
Pressure: 29.99"   Gusts: NA
Location:  42.66°N, 74.51°W
Report Text: KNY0 301435Z AUTO 31007KT 10SM BKN023 OVC030 07/02 A2999 RMK AO2 T00650020
Loading
Personal Weather Stations






























Interactive Weather Map
Tropical Storm Tracking
New forecast layout! Learn more

10-Day Weather Forecast

Advertisements
Track Severe Weather on mobile